Stations météo

réclame
Mon MeteoGroup
Gent/Industry Zo, Pays-Bas (6431): Température de l'air & dewpoint: 18.11.2017 15:00:00 - 24.11.2017 15:00:00 (CET)Gent/Industry Zo, Pays-Bas (6431): Vitesse du vent & gusts: 18.11.2017 15:00:00 - 24.11.2017 15:00:00 (CET)Gent/Industry Zo, Pays-Bas (6431): Direction du vent: 18.11.2017 15:00:00 - 24.11.2017 15:00:00 (CET)Gent/Industry Zo, Pays-Bas (6431): reduced air pressure: 18.11.2017 15:00:00 - 24.11.2017 15:00:00 (CET)Gent/Industry Zo, Pays-Bas (6431): Ensoleillement: 18.11.2017 15:00:00 - 24.11.2017 15:00:00 (CET)Gent/Industry Zo, Pays-Bas (6431): Quantités de précipitations: 18.11.2017 15:00:00 - 24.11.2017 15:00:00 (CET)
Date & Time tt [°C] td [°C] ff [km/h] ff [knt] fx [km/h] fx [knt] dd ppp [hPa] sd [min] rr [mm]
24.11.2017 15:00:00 - - - - - - - - - -
24.11.2017 14:00:00 10,0 6,5 9 5 22 12 WNW 1011,6 - 0,0
24.11.2017 13:00:00 9,9 7,7 11 6 21 11 WSW 1011,4 - 0,0
24.11.2017 12:00:00 8,7 7,8 10 6 19 11 SW 1011,2 - 0,0
24.11.2017 11:00:00 7,9 7,4 11 6 19 11 SW 1010,5 - 0,0
24.11.2017 10:00:00 7,5 7,0 10 5 14 8 WSW 1010,2 - 0,0
24.11.2017 09:00:00 7,3 6,7 6 4 10 5 WSW 1009,0 - 0,0
24.11.2017 08:00:00 7,3 6,8 7 4 10 5 W 1007,9 0 0,0
24.11.2017 07:00:00 7,1 6,6 4 2 17 9 NW 1007,3 0 0,1
24.11.2017 06:00:00 7,7 7,2 8 5 11 6 WSW 1006,7 0 0,7
24.11.2017 05:00:00 7,9 7,3 7 4 19 10 SW 1006,7 0 4,1
24.11.2017 04:00:00 8,2 7,5 5 3 10 5 WSW 1006,8 0 0,4
24.11.2017 03:00:00 8,4 7,4 6 4 14 8 SSW 1007,6 0 2,0
24.11.2017 02:00:00 8,9 7,1 9 5 16 9 SSW 1007,7 0 0,3
24.11.2017 01:00:00 9,4 6,9 11 6 19 10 SW 1007,8 0 0,0
24.11.2017 00:00:00 9,7 6,8 10 5 23 13 SSW 1008,3 0 0,0
23.11.2017 23:00:00 10,0 7,1 13 7 25 14 SSW 1008,7 0 0,0
23.11.2017 22:00:00 9,7 7,1 14 7 26 14 SSW 1008,6 0 0,0
23.11.2017 21:00:00 9,5 7,1 12 7 22 12 SSW 1008,5 0 0,0
23.11.2017 20:00:00 9,8 6,6 13 7 26 14 SSW 1007,7 0 0,0
23.11.2017 19:00:00 9,5 6,2 11 6 20 11 SW 1007,2 0 0,0
23.11.2017 18:00:00 9,9 5,7 13 7 26 14 SW 1006,5 0 0,0
23.11.2017 17:00:00 10,7 7,2 15 8 34 19 WSW 1006,0 - 0,0
23.11.2017 16:00:00 11,8 7,4 26 14 44 24 WSW 1004,8 - 0,0
23.11.2017 15:00:00 12,3 7,9 23 12 48 26 WSW 1004,0 - 0,0
23.11.2017 14:00:00 13,3 8,2 34 18 58 32 WSW 1002,6 - 0,1
23.11.2017 13:00:00 14,7 11,7 25 14 50 27 SW 1000,4 - 0,1
23.11.2017 12:00:00 14,6 11,5 24 13 50 27 SSW 999,8 - 0,0
23.11.2017 11:00:00 13,2 11,5 21 11 55 30 SSW 999,2 - 0,0
23.11.2017 10:00:00 13,1 11,0 23 12 59 32 SSW 998,0 - 0,0
23.11.2017 09:00:00 13,1 9,9 26 14 68 37 SSW 996,6 - 0,0
23.11.2017 08:00:00 14,1 8,2 28 15 66 35 S 995,2 0 0,0
23.11.2017 07:00:00 13,8 7,4 27 15 58 31 S 994,7 0 0,0
23.11.2017 06:00:00 13,3 6,7 22 12 51 27 S 994,9 0 0,0
23.11.2017 05:00:00 13,5 6,4 19 10 51 28 S 995,9 0 0,0
23.11.2017 04:00:00 13,6 6,2 14 8 48 26 S 996,7 0 0,0
23.11.2017 03:00:00 13,4 5,7 23 12 45 24 S 997,2 0 0,0
23.11.2017 02:00:00 13,1 6,3 13 7 41 22 S 997,5 0 0,0
23.11.2017 01:00:00 13,5 6,2 18 10 49 26 S 998,0 0 0,0
23.11.2017 00:00:00 12,8 5,8 21 12 49 26 S 998,5 0 0,0
22.11.2017 23:00:00 12,5 5,8 17 9 41 22 S 999,3 0 0,0
22.11.2017 22:00:00 11,9 5,8 17 9 41 22 S 999,8 0 0,0
22.11.2017 21:00:00 11,9 6,3 18 10 49 26 S 1000,1 0 0,0
22.11.2017 20:00:00 11,7 6,3 21 11 37 20 S 1000,9 0 0,0
22.11.2017 19:00:00 11,4 6,6 18 10 35 19 S 1001,9 0 0,0
22.11.2017 18:00:00 11,7 6,8 11 6 35 19 S 1002,4 - 0,0
22.11.2017 17:00:00 12,5 7,1 19 10 38 21 S 1002,6 - 0,0
22.11.2017 16:00:00 13,2 7,5 19 10 35 19 S 1003,2 - 0,0
22.11.2017 15:00:00 13,9 8,2 13 7 39 21 S 1004,1 - 0,0
22.11.2017 14:00:00 13,6 8,5 16 9 37 20 S 1005,0 - 0,0
22.11.2017 13:00:00 13,2 8,7 18 10 36 19 SSW 1005,4 - 0,0
22.11.2017 12:00:00 12,5 8,9 18 10 38 20 S 1006,4 - 0,0
22.11.2017 11:00:00 11,4 8,9 20 11 38 21 SSW 1006,9 - 0,0
22.11.2017 10:00:00 10,9 8,9 19 10 48 26 S 1006,9 - 0,0
22.11.2017 09:00:00 11,0 9,2 17 9 37 20 SSW 1007,0 - 0,0
22.11.2017 08:00:00 10,9 9,1 17 9 33 18 SSW 1006,9 0 0,0
22.11.2017 07:00:00 11,2 9,2 18 10 - - SSW 1006,7 0 0,0
22.11.2017 06:00:00 11,0 9,1 17 9 38 21 SSW 1006,9 0 0,0
22.11.2017 05:00:00 11,5 9,2 20 11 37 20 SSW 1007,2 0 0,0
22.11.2017 04:00:00 11,3 9,2 19 10 37 20 SSW 1007,4 0 0,0
22.11.2017 03:00:00 11,5 9,1 18 10 42 23 SSW 1007,9 0 0,0
22.11.2017 02:00:00 11,4 9,1 22 12 37 20 SSW 1008,2 0 0,0
22.11.2017 01:00:00 11,4 9,3 18 10 35 19 SSW 1008,9 0 0,0
22.11.2017 00:00:00 11,2 9,3 16 9 30 16 SSW 1009,1 0 0,0
21.11.2017 23:00:00 11,0 9,2 14 7 35 19 SSW 1009,4 0 0,0
21.11.2017 22:00:00 11,0 9,4 18 10 33 18 SSW 1009,7 0 0,0
21.11.2017 21:00:00 11,1 9,5 17 9 35 19 SSW 1010,3 0 0,0
21.11.2017 20:00:00 11,0 9,5 17 9 40 22 SSW 1010,4 0 0,0
21.11.2017 19:00:00 11,1 9,5 14 8 29 16 SSW 1010,8 0 0,0
21.11.2017 18:00:00 11,3 9,7 14 7 31 17 SSW 1010,9 - 0,0
21.11.2017 17:00:00 11,5 10,0 13 7 27 15 SSW 1011,3 - 0,0
21.11.2017 16:00:00 11,8 10,1 12 7 26 14 SSW 1011,7 - 0,0
21.11.2017 15:00:00 11,7 10,3 17 9 33 18 SW 1012,1 - 0,0
21.11.2017 14:00:00 11,6 10,7 15 8 33 18 SW 1012,2 - 0,0
21.11.2017 13:00:00 11,5 11,0 19 10 31 17 SW 1012,9 - 0,0
21.11.2017 12:00:00 11,6 11,3 17 9 33 18 SW 1013,2 - 0,0
21.11.2017 11:00:00 12,0 11,8 16 9 35 19 SW 1013,3 - 0,0
21.11.2017 10:00:00 12,1 12,0 20 11 33 18 SW 1012,8 - 0,1
21.11.2017 09:00:00 12,0 11,8 17 9 31 17 WSW 1012,5 - 0,3
21.11.2017 08:00:00 12,0 11,9 16 9 28 15 SW 1012,3 0 0,2
21.11.2017 07:00:00 11,9 11,8 14 8 23 13 WSW 1012,3 0 0,3
21.11.2017 06:00:00 11,9 11,6 13 7 21 12 WSW 1012,5 0 0,5
21.11.2017 05:00:00 11,9 11,6 13 7 20 11 WSW 1012,6 0 0,6
21.11.2017 04:00:00 12,0 11,6 12 6 21 12 WSW 1012,8 0 0,4
21.11.2017 03:00:00 12,2 11,6 12 6 22 12 WSW 1013,1 0 0,0
21.11.2017 02:00:00 12,3 11,7 14 8 26 14 WSW 1013,0 0 0,0
21.11.2017 01:00:00 12,4 11,7 18 10 24 13 WSW 1013,2 0 0,0
21.11.2017 00:00:00 12,5 11,6 16 9 32 17 W 1013,0 0 0,0
20.11.2017 23:00:00 12,3 11,6 20 11 33 18 WSW 1012,8 0 0,0
20.11.2017 22:00:00 12,3 11,6 16 9 29 16 WSW 1012,9 0 0,0
20.11.2017 21:00:00 12,2 11,6 23 13 35 19 WSW 1012,9 0 0,0
20.11.2017 20:00:00 11,9 11,6 19 10 37 20 W 1012,8 0 0,0
20.11.2017 19:00:00 11,4 11,2 18 10 31 17 WSW 1012,5 0 1,0
20.11.2017 18:00:00 10,9 10,7 16 8 27 15 SW 1012,7 - 0,2
20.11.2017 17:00:00 10,4 10,2 13 7 27 15 SW 1012,9 - 0,1
20.11.2017 16:00:00 9,9 9,6 16 8 30 16 SW 1013,5 - 0,3
20.11.2017 15:00:00 9,0 8,8 16 8 29 16 SW 1013,8 - 0,2
20.11.2017 14:00:00 8,2 8,0 13 7 29 15 SW 1014,8 - 0,2
20.11.2017 13:00:00 7,7 7,3 15 8 27 15 SW 1015,8 - 0,0
20.11.2017 12:00:00 6,8 6,4 16 9 30 16 SSW 1016,6 - 0,4
20.11.2017 11:00:00 6,2 5,6 10 6 26 14 S 1017,3 - 0,6
20.11.2017 10:00:00 5,8 4,8 8 4 22 12 S 1018,2 - 0,4
20.11.2017 09:00:00 5,0 3,7 9 5 24 13 S 1019,0 - 0,3
20.11.2017 08:00:00 5,2 3,3 8 5 19 10 S 1019,9 0 0,2
20.11.2017 07:00:00 5,1 2,9 11 6 21 11 SW 1020,5 0 0,0
20.11.2017 06:00:00 5,1 3,0 9 5 20 11 SW 1020,6 0 0,0
20.11.2017 05:00:00 4,9 3,0 10 5 18 10 SW 1020,9 0 0,0
20.11.2017 04:00:00 4,6 3,0 9 5 18 10 SW 1021,5 0 0,0
20.11.2017 03:00:00 4,4 3,0 11 6 17 9 SW 1022,0 0 0,0
20.11.2017 02:00:00 4,3 3,1 11 6 21 11 SW 1022,4 0 0,0
20.11.2017 01:00:00 4,1 3,2 7 4 15 8 SW 1023,0 0 0,0
20.11.2017 00:00:00 3,7 2,8 10 5 16 9 WSW 1023,4 0 0,0
19.11.2017 23:00:00 3,4 2,5 9 5 14 8 SW 1023,3 0 0,0
19.11.2017 22:00:00 3,7 2,7 11 6 16 8 WSW 1023,5 0 0,0
19.11.2017 21:00:00 4,3 3,0 11 6 17 9 WSW 1023,0 0 0,0
19.11.2017 20:00:00 5,1 3,2 12 7 18 10 WSW 1022,9 0 0,0
19.11.2017 19:00:00 6,0 3,7 11 6 17 9 W 1022,8 0 0,0
19.11.2017 18:00:00 6,7 3,9 13 7 20 11 WSW 1022,4 - 0,0
19.11.2017 17:00:00 7,6 4,2 10 5 19 11 WNW 1022,1 - 0,0
19.11.2017 16:00:00 8,0 4,3 13 7 31 17 WNW 1021,9 - 0,0
19.11.2017 15:00:00 9,4 4,3 23 12 35 19 WNW 1021,7 - 0,0
19.11.2017 14:00:00 9,0 4,0 22 12 34 18 NW 1021,6 - 0,0
19.11.2017 13:00:00 9,4 5,5 22 12 31 17 WNW 1021,5 - 0,0
19.11.2017 12:00:00 8,5 4,7 23 12 33 18 WNW 1021,2 - 0,0
19.11.2017 11:00:00 7,0 4,3 13 7 21 12 WSW 1020,7 - 0,0
19.11.2017 10:00:00 5,8 3,3 13 7 19 10 WSW 1020,3 - 0,0
19.11.2017 09:00:00 4,8 2,3 12 7 23 12 WSW 1019,7 - 0,0
19.11.2017 08:00:00 5,7 2,3 14 7 18 10 W 1019,2 0 0,0
19.11.2017 07:00:00 5,1 2,6 11 6 14 7 W 1018,8 0 0,0
19.11.2017 06:00:00 6,1 3,9 10 5 18 10 W 1018,5 0 0,0
19.11.2017 05:00:00 6,0 3,7 14 8 26 14 WNW 1018,2 0 0,1
19.11.2017 04:00:00 6,5 1,5 16 9 26 14 WNW 1017,9 0 0,0
19.11.2017 03:00:00 6,7 0,9 18 10 27 15 WNW 1018,0 0 0,0
19.11.2017 02:00:00 7,2 1,6 19 10 33 18 NW 1017,7 0 0,0
19.11.2017 01:00:00 7,6 2,9 18 10 29 16 NW 1017,8 0 0,0
19.11.2017 00:00:00 8,0 4,1 14 8 22 12 WNW 1017,6 0 0,0
18.11.2017 23:00:00 8,1 6,9 10 6 16 9 WSW 1017,5 0 0,0
18.11.2017 22:00:00 8,2 7,0 11 6 18 10 WSW 1017,7 0 0,0
18.11.2017 21:00:00 8,1 7,1 10 6 16 9 WSW 1018,0 0 0,0
18.11.2017 20:00:00 8,2 7,3 11 6 24 13 WSW 1018,3 0 0,0
18.11.2017 19:00:00 8,4 7,2 14 8 24 13 WSW 1018,5 0 0,0
18.11.2017 18:00:00 8,8 7,4 14 7 21 11 WSW 1019,0 - 0,0
18.11.2017 17:00:00 9,0 7,5 16 8 29 15 W 1019,3 - 0,1
18.11.2017 16:00:00 9,4 7,0 17 9 34 19 WSW 1019,7 - 0,0
18.11.2017 15:00:00 9,5 6,8 22 12 34 18 WSW 1020,0 - 0,0

tt = Température de l'air
td = dewpoint
ff = Vitesse du vent
fx = gusts
dd = Direction du vent
ppp = reduced air pressure
sd = Ensoleillement
rr = Quantités de précipitations

stations d'obs. à proximité